createdAt,value
2017-11-29T00:00:40.855Z,95982.31
2017-11-29T00:03:11.251Z,95987.30
2017-11-29T00:05:38.945Z,95979.78
2017-11-29T00:08:08.459Z,95979.36
2017-11-29T00:10:36.154Z,95980.17
2017-11-29T00:13:04.662Z,95983.93
2017-11-29T00:15:32.334Z,95978.53
2017-11-29T00:18:00.947Z,95978.53
2017-11-29T00:20:28.576Z,95973.08
2017-11-29T00:22:58.024Z,95973.89
2017-11-29T00:25:25.913Z,95971.78
2017-11-29T00:27:55.300Z,95968.40
2017-11-29T00:30:26.698Z,95968.37
2017-11-29T00:32:54.422Z,95967.46
2017-11-29T00:35:22.863Z,95969.13
2017-11-29T00:37:50.528Z,95965.74
2017-11-29T00:40:20.020Z,95969.87
2017-11-29T00:42:48.510Z,95964.84
2017-11-29T00:45:16.214Z,95971.48
2017-11-29T00:47:45.540Z,95973.98
2017-11-29T00:50:13.484Z,95981.03
2017-11-29T00:52:42.807Z,95973.91
2017-11-29T00:55:10.540Z,95976.78
2017-11-29T00:57:38.412Z,95983.91
2017-11-29T01:00:06.446Z,95988.94
2017-11-29T01:02:34.096Z,95991.39
2017-11-29T01:05:01.846Z,95992.22
2017-11-29T01:07:31.344Z,95989.69
2017-11-29T01:09:59.012Z,95985.08
2017-11-29T01:12:26.852Z,95982.11
2017-11-29T01:14:54.602Z,95975.84
2017-11-29T01:17:24.033Z,95978.30
2017-11-29T01:19:53.342Z,95982.48
2017-11-29T01:22:21.048Z,95983.74
2017-11-29T01:24:48.678Z,95976.59
2017-11-29T01:27:16.422Z,95979.07
2017-11-29T01:29:44.807Z,95977.84
2017-11-29T01:32:13.271Z,95979.52
2017-11-29T01:34:40.941Z,95965.70
2017-11-29T01:37:10.412Z,95971.11
2017-11-29T01:39:40.775Z,95978.64
2017-11-29T01:42:08.597Z,95972.32
2017-11-29T01:44:36.325Z,95966.45
2017-11-29T01:47:03.987Z,95971.47
2017-11-29T01:49:33.410Z,95969.76
2017-11-29T01:52:02.722Z,95971.02
2017-11-29T01:54:30.430Z,95968.50
2017-11-29T01:57:00.813Z,95969.39
2017-11-29T01:59:28.569Z,95965.62
2017-11-29T02:01:56.398Z,95967.67
2017-11-29T02:04:24.054Z,95973.09
2017-11-29T02:06:53.609Z,95972.65
2017-11-29T02:09:21.426Z,95975.93
2017-11-29T02:11:50.859Z,95966.30
2017-11-29T02:14:18.598Z,95970.91
2017-11-29T02:16:47.857Z,95963.04
2017-11-29T02:19:16.009Z,95962.59
2017-11-29T02:21:45.259Z,95952.13
2017-11-29T02:24:13.710Z,95951.27
2017-11-29T02:26:42.698Z,95952.47
2017-11-29T02:29:12.154Z,95955.84
2017-11-29T02:31:39.853Z,95957.87
2017-11-29T02:34:07.461Z,95952.34
2017-11-29T02:36:35.937Z,95963.66
2017-11-29T02:39:03.741Z,95945.67
2017-11-29T02:41:45.039Z,95951.49
2017-11-29T02:44:13.461Z,95949.78
2017-11-29T02:46:41.129Z,95956.00
2017-11-29T02:49:08.802Z,95954.30
2017-11-29T02:51:36.983Z,95947.97
2017-11-29T02:54:04.630Z,95950.91
2017-11-29T02:56:34.095Z,95943.78
2017-11-29T02:59:02.517Z,95921.19
2017-11-29T03:01:31.807Z,95919.54
2017-11-29T03:04:01.286Z,95922.41
2017-11-29T03:06:29.721Z,95921.98
2017-11-29T03:08:59.169Z,95924.89
2017-11-29T03:11:26.963Z,95925.30
2017-11-29T03:13:55.608Z,95921.94
2017-11-29T03:16:24.163Z,95919.83
2017-11-29T03:18:51.908Z,95922.80
2017-11-29T03:21:20.011Z,95930.31
2017-11-29T03:23:49.379Z,95927.78
2017-11-29T03:26:21.255Z,95928.20
2017-11-29T03:28:48.981Z,95929.43
2017-11-29T03:31:16.650Z,95934.45
2017-11-29T03:33:46.129Z,95933.56
2017-11-29T03:36:13.813Z,95937.30
2017-11-29T03:38:41.537Z,95932.72
2017-11-29T03:41:09.219Z,95931.89
2017-11-29T03:43:39.048Z,95941.47
2017-11-29T03:46:07.435Z,95933.89
2017-11-29T03:48:35.174Z,95932.16
2017-11-29T03:51:02.934Z,95938.00
2017-11-29T03:53:31.630Z,95935.91
2017-11-29T03:56:01.079Z,95926.34
2017-11-29T03:58:30.037Z,95926.34
2017-11-29T04:01:00.357Z,95934.27
2017-11-29T04:03:28.047Z,95929.22
2017-11-29T04:05:57.341Z,95930.45
2017-11-29T04:08:25.030Z,95926.72
2017-11-29T04:10:52.687Z,95922.95
2017-11-29T04:13:20.472Z,95928.39
2017-11-29T04:15:51.491Z,95934.27
2017-11-29T04:18:19.948Z,95922.16
2017-11-29T04:20:47.700Z,95931.37
2017-11-29T04:23:18.001Z,95955.25
2017-11-29T04:25:45.663Z,95932.73
2017-11-29T04:28:15.971Z,95932.37
2017-11-29T04:30:47.971Z,95932.02
2017-11-29T04:33:16.491Z,95940.00
2017-11-29T04:35:45.013Z,95930.37
2017-11-29T04:38:12.701Z,95930.80
2017-11-29T04:40:40.426Z,95926.13
2017-11-29T04:43:08.835Z,95917.34
2017-11-29T04:45:36.519Z,95920.73
2017-11-29T04:48:06.027Z,95925.35
2017-11-29T04:50:35.380Z,95926.66
2017-11-29T04:53:04.852Z,95930.39
2017-11-29T04:55:32.605Z,95935.78
2017-11-29T04:58:01.117Z,95926.95
2017-11-29T05:00:29.191Z,95939.52
2017-11-29T05:02:58.675Z,95936.64
2017-11-29T05:05:29.066Z,95924.92
2017-11-29T05:07:58.461Z,95935.36
2017-11-29T05:10:28.009Z,95929.94
2017-11-29T05:12:57.069Z,95931.65
2017-11-29T05:15:31.721Z,95934.18
2017-11-29T05:18:01.611Z,95935.86
2017-11-29T05:20:30.149Z,95928.36
2017-11-29T05:22:59.558Z,95937.59
2017-11-29T05:25:30.217Z,95931.33
2017-11-29T05:27:57.956Z,95929.22
2017-11-29T05:30:28.351Z,95930.02
2017-11-29T05:32:56.069Z,95932.13
2017-11-29T05:35:24.469Z,95930.47
2017-11-29T05:37:52.113Z,95939.20
2017-11-29T05:40:19.725Z,95936.23
2017-11-29T05:42:49.154Z,95935.81
2017-11-29T05:45:17.978Z,95942.05
2017-11-29T05:47:45.635Z,95937.48
2017-11-29T05:50:15.067Z,95934.95
2017-11-29T05:52:46.022Z,95944.53
2017-11-29T05:55:13.695Z,95949.47
2017-11-29T05:57:43.080Z,95951.52
2017-11-29T06:00:13.414Z,95954.48
2017-11-29T06:02:42.886Z,95951.60
2017-11-29T06:05:10.649Z,95950.38
2017-11-29T06:07:40.041Z,95951.20
2017-11-29T06:10:11.577Z,95952.42
2017-11-29T06:12:40.932Z,95945.25
2017-11-29T06:15:08.677Z,95948.98
2017-11-29T06:17:36.302Z,95942.29
2017-11-29T06:20:05.960Z,95942.69
2017-11-29T06:22:36.625Z,95936.93
2017-11-29T06:25:05.156Z,95944.03
2017-11-29T06:27:34.708Z,95946.11
2017-11-29T06:30:03.488Z,95942.31
2017-11-29T06:32:32.774Z,95942.32
2017-11-29T06:35:00.600Z,95946.03
2017-11-29T06:37:28.269Z,95951.41
2017-11-29T06:39:56.718Z,95948.48
2017-11-29T06:42:24.688Z,95948.11
2017-11-29T06:44:52.476Z,95942.29
2017-11-29T06:47:22.804Z,95940.67
2017-11-29T06:49:51.205Z,95935.62
2017-11-29T06:52:20.598Z,95940.24
2017-11-29T06:54:49.156Z,95935.20
2017-11-29T06:57:17.115Z,95940.19
2017-11-29T06:59:47.076Z,95940.95
2017-11-29T07:02:15.521Z,95946.77
2017-11-29T07:04:43.243Z,95950.16
2017-11-29T07:07:11.656Z,95959.39
2017-11-29T07:09:40.054Z,95956.91
2017-11-29T07:12:09.414Z,95953.59
2017-11-29T07:14:38.851Z,95957.42
2017-11-29T07:17:06.741Z,95959.95
2017-11-29T07:19:35.259Z,95960.84
2017-11-29T07:22:03.025Z,95964.94
2017-11-29T07:24:30.839Z,95979.93
2017-11-29T07:26:59.224Z,95970.44
2017-11-29T07:29:28.736Z,95967.56
2017-11-29T07:31:59.124Z,95970.94
2017-11-29T07:34:26.821Z,95971.42
2017-11-29T07:36:56.436Z,95971.45
2017-11-29T07:39:25.816Z,95969.83
2017-11-29T07:41:54.346Z,95966.09
2017-11-29T07:44:22.003Z,95967.77
2017-11-29T07:46:49.706Z,95972.30
2017-11-29T07:49:19.114Z,95979.83
2017-11-29T07:51:48.366Z,95983.64
2017-11-29T07:54:18.835Z,95984.52
2017-11-29T07:56:48.454Z,95993.81
2017-11-29T07:59:16.176Z,95977.13
2017-11-29T08:01:44.660Z,95979.27
2017-11-29T08:04:15.033Z,95982.22
2017-11-29T08:06:42.713Z,95981.05
2017-11-29T08:09:13.019Z,95979.37
2017-11-29T08:11:42.567Z,95984.01
2017-11-29T08:14:11.012Z,95978.59
2017-11-29T08:16:39.682Z,95974.42
2017-11-29T08:19:09.290Z,95972.84
2017-11-29T08:21:38.642Z,95972.92
2017-11-29T08:24:06.381Z,95970.09
2017-11-29T08:26:34.043Z,95969.27
2017-11-29T08:29:04.376Z,95964.31
2017-11-29T08:31:33.663Z,95972.75
2017-11-29T08:34:01.365Z,95971.11
2017-11-29T08:36:31.656Z,95969.50
2017-11-29T08:38:59.439Z,95975.45
2017-11-29T08:41:28.081Z,95974.72
2017-11-29T08:43:55.783Z,95976.02
2017-11-29T08:46:25.066Z,95974.41
2017-11-29T08:48:56.301Z,95964.84
2017-11-29T08:51:23.984Z,95965.33
2017-11-29T08:53:51.695Z,95972.12
2017-11-29T08:56:21.044Z,95970.55
2017-11-29T08:58:48.762Z,95976.09
2017-11-29T09:01:16.392Z,95978.61
2017-11-29T09:03:44.867Z,95978.98
2017-11-29T09:06:14.237Z,95968.06
2017-11-29T09:08:43.752Z,95977.31
2017-11-29T09:11:13.051Z,95976.92
2017-11-29T09:13:40.849Z,95971.14
2017-11-29T09:16:09.237Z,95961.58
2017-11-29T09:18:38.645Z,95954.52
2017-11-29T09:21:07.953Z,95955.00
2017-11-29T09:23:37.553Z,95968.06
2017-11-29T09:26:05.367Z,95964.67
2017-11-29T09:28:34.824Z,95960.98
2017-11-29T09:31:02.530Z,95955.57
2017-11-29T09:33:31.893Z,95963.60
2017-11-29T09:36:01.287Z,95967.33
2017-11-29T09:38:30.557Z,95966.58
2017-11-29T09:40:59.102Z,95961.30
2017-11-29T09:43:26.844Z,95957.70
2017-11-29T09:45:56.324Z,95962.88
2017-11-29T09:48:26.690Z,95951.33
2017-11-29T09:50:55.158Z,95957.34
2017-11-29T09:53:23.559Z,95958.00
2017-11-29T09:55:51.255Z,95955.09
2017-11-29T09:58:19.700Z,95954.80
2017-11-29T10:00:48.109Z,95959.05
2017-11-29T10:03:15.963Z,95951.38
2017-11-29T10:05:45.196Z,95952.98
2017-11-29T10:08:14.514Z,95953.77
2017-11-29T10:10:42.277Z,95951.97
2017-11-29T10:13:10.824Z,95949.39
2017-11-29T10:15:41.162Z,95949.39
2017-11-29T10:18:08.873Z,95947.74
2017-11-29T10:20:40.913Z,95939.77
2017-11-29T10:23:09.588Z,95940.63
2017-11-29T10:25:38.261Z,95930.65
2017-11-29T10:28:05.979Z,95930.33
2017-11-29T10:30:36.324Z,95926.61
2017-11-29T10:33:04.034Z,95917.88
2017-11-29T10:35:34.539Z,95914.11
2017-11-29T10:38:02.364Z,95914.58
2017-11-29T10:40:29.990Z,95912.48
2017-11-29T10:42:57.645Z,95905.86
2017-11-29T10:45:26.981Z,95907.95
2017-11-29T10:47:57.205Z,95912.59
2017-11-29T10:50:24.964Z,95914.27
2017-11-29T10:52:52.692Z,95906.73
2017-11-29T10:55:21.111Z,95903.80
2017-11-29T10:57:50.512Z,95900.84
2017-11-29T11:00:24.975Z,95902.14
2017-11-29T11:02:52.635Z,95904.64
2017-11-29T11:05:22.140Z,95903.77
2017-11-29T11:07:49.936Z,95897.87
2017-11-29T11:10:20.248Z,95902.95
2017-11-29T11:12:47.953Z,95903.36
2017-11-29T11:15:17.440Z,95894.90
2017-11-29T11:17:45.368Z,95898.26
2017-11-29T11:20:13.843Z,95899.95
2017-11-29T11:22:41.528Z,95893.66
2017-11-29T11:25:09.987Z,95894.92
2017-11-29T11:27:39.632Z,95895.79
2017-11-29T11:30:07.304Z,95890.31
2017-11-29T11:32:35.131Z,95893.28
2017-11-29T11:35:04.739Z,95887.38
2017-11-29T11:37:33.454Z,95885.30
2017-11-29T11:40:02.967Z,95884.06
2017-11-29T11:42:31.657Z,95884.09
2017-11-29T11:45:01.085Z,95881.14
2017-11-29T11:47:28.730Z,95874.45
2017-11-29T11:49:57.196Z,95870.70
2017-11-29T11:52:24.924Z,95872.37
2017-11-29T11:54:55.202Z,95876.13
2017-11-29T11:57:25.493Z,95871.42
2017-11-29T11:59:54.046Z,95867.27
2017-11-29T12:02:24.293Z,95874.85
2017-11-29T12:04:53.776Z,95863.94
2017-11-29T12:07:23.096Z,95863.95
2017-11-29T12:09:50.842Z,95871.96
2017-11-29T12:12:20.255Z,95862.66
2017-11-29T12:14:48.783Z,95868.48
2017-11-29T12:17:19.103Z,95859.73
2017-11-29T12:19:46.861Z,95857.21
2017-11-29T12:22:16.134Z,95852.17
2017-11-29T12:24:45.528Z,95847.98
2017-11-29T12:27:15.092Z,95841.20
2017-11-29T12:29:43.597Z,95842.02
2017-11-29T12:32:11.291Z,95844.09
2017-11-29T12:34:40.743Z,95841.98
2017-11-29T12:37:10.156Z,95837.37
2017-11-29T12:39:37.865Z,95843.31
2017-11-29T12:42:06.308Z,95833.25
2017-11-29T12:44:34.273Z,95830.34
2017-11-29T12:47:02.782Z,95837.92
2017-11-29T12:49:42.202Z,95833.75
2017-11-29T12:52:11.659Z,95830.44
2017-11-29T12:54:41.163Z,95832.98
2017-11-29T12:57:09.915Z,95831.31
2017-11-29T12:59:39.339Z,95829.66
2017-11-29T13:02:07.998Z,95826.64
2017-11-29T13:04:35.705Z,95827.90
2017-11-29T13:07:05.004Z,95825.41
2017-11-29T13:09:32.730Z,95824.95
2017-11-29T13:12:01.203Z,95820.30
2017-11-29T13:14:30.653Z,95821.59
2017-11-29T13:16:59.227Z,95820.80
2017-11-29T13:19:28.608Z,95811.60
2017-11-29T13:21:57.100Z,95809.54
2017-11-29T13:24:24.764Z,95815.84
2017-11-29T13:26:52.432Z,95812.05
2017-11-29T13:29:20.114Z,95819.59
2017-11-29T13:31:50.543Z,95821.66
2017-11-29T13:34:20.087Z,95821.61
2017-11-29T13:36:47.911Z,95827.48
2017-11-29T13:39:17.308Z,95831.65
2017-11-29T13:41:45.798Z,95838.72
2017-11-29T13:44:13.518Z,95839.12
2017-11-29T13:46:41.182Z,95832.36
2017-11-29T13:49:11.468Z,95836.10
2017-11-29T13:51:41.446Z,95839.36
2017-11-29T13:54:09.219Z,95828.84
2017-11-29T13:56:37.673Z,95839.72
2017-11-29T13:59:05.463Z,95840.11
2017-11-29T14:01:33.189Z,95847.23
2017-11-29T14:04:00.846Z,95843.47
2017-11-29T14:06:29.239Z,95846.86
2017-11-29T14:08:59.541Z,95837.61
2017-11-29T14:11:27.218Z,95838.47
2017-11-29T14:13:55.052Z,95842.20
2017-11-29T14:16:24.565Z,95852.66
2017-11-29T14:18:52.272Z,95846.78
2017-11-29T14:21:21.581Z,95845.11
2017-11-29T14:23:51.127Z,95840.89
2017-11-29T14:26:19.895Z,95838.36
2017-11-29T14:28:51.941Z,95838.78
2017-11-29T14:31:19.603Z,95838.34
2017-11-29T14:33:48.977Z,95844.58
2017-11-29T14:36:17.525Z,95842.05
2017-11-29T14:38:46.059Z,95842.02
2017-11-29T14:41:13.930Z,95836.98
2017-11-29T14:43:41.634Z,95842.83
2017-11-29T14:46:11.165Z,95837.78
2017-11-29T14:48:38.976Z,95834.83
2017-11-29T14:51:08.577Z,95829.41
2017-11-29T14:53:38.190Z,95833.16
2017-11-29T14:56:11.048Z,95830.20
2017-11-29T14:58:41.684Z,95825.59
2017-11-29T15:01:15.256Z,95824.31
2017-11-29T15:03:47.051Z,95828.08
2017-11-29T15:06:18.119Z,95837.68
2017-11-29T15:08:46.190Z,95832.21
2017-11-29T15:11:15.588Z,95836.81
2017-11-29T15:13:43.332Z,95837.61
2017-11-29T15:16:12.047Z,95836.73
2017-11-29T15:18:41.677Z,95835.47
2017-11-29T15:21:10.170Z,95840.50
2017-11-29T15:23:37.865Z,95842.16
2017-11-29T15:26:07.277Z,95845.92
2017-11-29T15:28:35.141Z,95842.94
2017-11-29T15:31:03.587Z,95846.23
2017-11-29T15:33:33.018Z,95850.00
2017-11-29T15:36:01.775Z,95847.04
2017-11-29T15:38:29.477Z,95846.63
2017-11-29T15:40:58.908Z,95849.06
2017-11-29T15:43:29.889Z,95849.03
2017-11-29T15:45:57.863Z,95844.42
2017-11-29T15:48:26.448Z,95832.72
2017-11-29T15:50:54.162Z,95842.33
2017-11-29T15:53:24.793Z,95836.44
2017-11-29T15:55:55.195Z,95834.28
2017-11-29T15:58:24.803Z,95829.23
2017-11-29T16:00:54.412Z,95827.49
2017-11-29T16:03:26.324Z,95824.16
2017-11-29T16:05:55.782Z,95827.91
2017-11-29T16:08:24.252Z,95822.41
2017-11-29T16:10:53.715Z,95824.92
2017-11-29T16:13:23.610Z,95825.30
2017-11-29T16:15:51.337Z,95827.83
2017-11-29T16:18:20.228Z,95828.65
2017-11-29T16:20:47.913Z,95824.45
2017-11-29T16:23:17.347Z,95832.37
2017-11-29T16:25:46.753Z,95826.48
2017-11-29T16:28:14.490Z,95834.00
2017-11-29T16:30:42.206Z,95834.40
2017-11-29T16:33:09.890Z,95843.16
2017-11-29T16:35:37.705Z,95842.28
2017-11-29T16:38:08.145Z,95840.16
2017-11-29T16:40:37.673Z,95841.80
2017-11-29T16:43:05.456Z,95846.80
2017-11-29T16:45:35.971Z,95846.37
2017-11-29T16:48:03.741Z,95842.20
2017-11-29T16:50:33.189Z,95850.58
2017-11-29T16:53:01.079Z,95845.09
2017-11-29T16:55:30.026Z,95837.94
2017-11-29T16:57:59.171Z,95851.39
2017-11-29T17:00:27.778Z,95846.30
2017-11-29T17:02:56.877Z,95841.64
2017-11-29T17:05:24.566Z,95847.90
2017-11-29T17:07:53.951Z,95841.20
2017-11-29T17:10:21.702Z,95842.84
2017-11-29T17:12:51.129Z,95840.72
2017-11-29T17:15:19.624Z,95845.73
2017-11-29T17:17:47.359Z,95842.77
2017-11-29T17:20:15.073Z,95841.51
2017-11-29T17:22:44.457Z,95833.89
2017-11-29T17:25:14.837Z,95840.55
2017-11-29T17:27:42.757Z,95845.50
2017-11-29T17:30:13.091Z,95845.48
2017-11-29T17:32:40.800Z,95842.89
2017-11-29T17:35:10.540Z,95836.61
2017-11-29T17:37:39.895Z,95831.11
2017-11-29T17:40:07.685Z,95825.17
2017-11-29T17:42:36.402Z,95830.63
2017-11-29T17:45:04.290Z,95835.23
2017-11-29T17:47:34.607Z,95831.49
2017-11-29T17:50:03.109Z,95831.94
2017-11-29T17:52:31.581Z,95835.30
2017-11-29T17:55:00.965Z,95833.17
2017-11-29T17:57:30.358Z,95834.88
2017-11-29T17:59:58.866Z,95838.69
2017-11-29T18:02:28.455Z,95838.27
2017-11-29T18:04:56.256Z,95839.45
2017-11-29T18:07:25.589Z,95843.56
2017-11-29T18:09:55.251Z,95834.70
2017-11-29T18:12:24.876Z,95839.73
2017-11-29T18:14:53.354Z,95840.89
2017-11-29T18:17:21.146Z,95837.55
2017-11-29T18:19:53.353Z,95833.39
2017-11-29T18:22:21.104Z,95842.13
2017-11-29T18:24:49.636Z,95838.37
2017-11-29T18:27:19.306Z,95841.68
2017-11-29T18:29:47.801Z,95848.33
2017-11-29T18:32:15.527Z,95849.57
2017-11-29T18:34:44.104Z,95844.50
2017-11-29T18:37:13.794Z,95849.48
2017-11-29T18:39:41.664Z,95842.80
2017-11-29T18:42:09.408Z,95844.03
2017-11-29T18:44:37.236Z,95845.66
2017-11-29T18:47:06.901Z,95853.17
2017-11-29T18:49:36.807Z,95850.22
2017-11-29T18:52:08.042Z,95849.74
2017-11-29T18:54:35.955Z,95853.03
2017-11-29T18:57:04.412Z,95850.08
2017-11-29T18:59:32.129Z,95846.66
2017-11-29T19:02:00.024Z,95849.53
2017-11-29T19:04:28.683Z,95854.52
2017-11-29T19:06:56.557Z,95858.73
2017-11-29T19:09:24.260Z,95849.55
2017-11-29T19:11:52.096Z,95856.28
2017-11-29T19:14:20.834Z,95860.47
2017-11-29T19:16:50.694Z,95854.08
2017-11-29T19:19:18.671Z,95857.41
2017-11-29T19:21:49.138Z,95856.61
2017-11-29T19:24:17.213Z,95856.61
2017-11-29T19:26:44.938Z,95859.56
2017-11-29T19:29:12.795Z,95854.57
2017-11-29T19:31:42.425Z,95854.98
2017-11-29T19:34:10.507Z,95854.92
2017-11-29T19:36:40.085Z,95857.03
2017-11-29T19:39:07.959Z,95866.23
2017-11-29T19:41:38.329Z,95859.54
2017-11-29T19:44:06.210Z,95861.20
2017-11-29T19:46:36.538Z,95864.13
2017-11-29T19:49:04.449Z,95858.71
2017-11-29T19:51:34.831Z,95864.05
2017-11-29T19:54:02.795Z,95849.88
2017-11-29T19:56:30.670Z,95864.11
2017-11-29T19:58:59.465Z,95857.84
2017-11-29T20:01:27.535Z,95858.69
2017-11-29T20:03:55.290Z,95860.38
2017-11-29T20:06:24.669Z,95857.43
2017-11-29T20:08:55.057Z,95855.33
2017-11-29T20:11:24.599Z,95857.43
2017-11-29T20:13:52.421Z,95854.48
2017-11-29T20:16:22.926Z,95856.53
2017-11-29T20:18:50.812Z,95858.20
2017-11-29T20:21:18.906Z,95858.20
2017-11-29T20:23:48.395Z,95855.63
2017-11-29T20:26:19.219Z,95847.28
2017-11-29T20:28:47.101Z,95852.67
2017-11-29T20:31:15.286Z,95846.00
2017-11-29T20:33:43.142Z,95842.29
2017-11-29T20:36:10.924Z,95843.90
2017-11-29T20:38:43.580Z,95854.81
2017-11-29T20:41:13.213Z,95852.30
2017-11-29T20:43:41.504Z,95846.41
2017-11-29T20:46:10.199Z,95850.15
2017-11-29T20:48:38.840Z,95850.09
2017-11-29T21:04:12.316Z,95845.86
2017-11-29T21:06:40.025Z,95848.34
2017-11-29T21:09:07.891Z,95845.38
2017-11-29T21:11:37.412Z,95843.70
2017-11-29T21:14:07.041Z,95843.69
2017-11-29T21:16:34.907Z,95841.97
2017-11-29T21:19:03.438Z,95833.20
2017-11-29T21:21:31.284Z,95830.70
2017-11-29T21:24:01.879Z,95835.25
2017-11-29T21:26:31.218Z,95830.25
2017-11-29T21:29:00.651Z,95826.78
2017-11-29T21:31:30.438Z,95829.22
2017-11-29T21:33:58.374Z,95839.22
2017-11-29T21:36:28.026Z,95835.44
2017-11-29T21:38:56.854Z,95838.34
2017-11-29T21:41:24.541Z,95835.84
2017-11-29T21:43:52.305Z,95830.80
2017-11-29T21:46:19.981Z,95832.42
2017-11-29T21:48:48.528Z,95827.81
2017-11-29T21:51:17.007Z,95822.72
2017-11-29T21:53:46.527Z,95823.90
2017-11-29T21:56:14.374Z,95834.27
2017-11-29T21:58:43.730Z,95828.38
2017-11-29T22:01:11.770Z,95825.40
2017-11-29T22:03:39.456Z,95827.91
2017-11-29T22:06:07.155Z,95834.14
2017-11-29T22:08:34.951Z,95839.13
2017-11-29T22:11:03.386Z,95833.72
2017-11-29T22:13:32.672Z,95832.03
2017-11-29T22:16:00.432Z,95834.14
2017-11-29T22:18:29.042Z,95829.55
2017-11-29T22:20:56.738Z,95830.81
2017-11-29T22:23:24.524Z,95833.34
2017-11-29T22:25:52.409Z,95833.80
2017-11-29T22:28:20.147Z,95833.81
2017-11-29T22:30:50.454Z,95831.34
2017-11-29T22:33:20.007Z,95833.09
2017-11-29T22:35:47.863Z,95828.11
2017-11-29T22:38:17.317Z,95823.92
2017-11-29T22:40:45.093Z,95826.48
2017-11-29T22:43:15.015Z,95824.86
2017-11-29T22:45:43.479Z,95829.04
2017-11-29T22:48:11.240Z,95819.84
2017-11-29T22:50:38.921Z,95817.34
2017-11-29T22:53:06.603Z,95815.23
2017-11-29T22:55:34.353Z,95811.50
2017-11-29T22:58:02.833Z,95819.44
2017-11-29T23:00:32.517Z,95813.55
2017-11-29T23:03:00.770Z,95808.48
2017-11-29T23:05:29.283Z,95809.73
2017-11-29T23:07:57.035Z,95801.00
2017-11-29T23:10:26.491Z,95801.36
2017-11-29T23:12:55.985Z,95800.54
2017-11-29T23:15:23.629Z,95795.03
2017-11-29T23:17:51.383Z,95798.39
2017-11-29T23:20:19.055Z,95797.94
2017-11-29T23:22:48.470Z,95789.47
2017-11-29T23:25:16.305Z,95790.30
2017-11-29T23:27:43.973Z,95784.77
2017-11-29T23:30:12.597Z,95790.66
2017-11-29T23:32:40.427Z,95792.72
2017-11-29T23:48:09.232Z,95776.44
2017-11-29T23:50:37.033Z,95773.83
2017-11-29T23:53:07.329Z,95780.81
2017-11-29T23:55:35.066Z,95787.90
2017-11-29T23:58:02.696Z,95768.66
